sensor_id;sensor_type;location;lat;lon;timestamp;P1;P2;P0
77239;PMS7003;66258;53.170;-2.240;2023-05-15T00:00:15;3868.00;3868.00;3868.00
77239;PMS7003;66258;53.170;-2.240;2023-05-15T00:02:43;3880.40;3880.40;3880.40
77239;PMS7003;66258;53.170;-2.240;2023-05-15T00:05:10;3899.75;3899.75;3899.75
77239;PMS7003;66258;53.170;-2.240;2023-05-15T00:07:39;2382.50;2368.50;2360.50
77239;PMS7003;66258;53.170;-2.240;2023-05-15T00:10:07;3355.40;3355.40;3354.00
77239;PMS7003;66258;53.170;-2.240;2023-05-15T00:12:35;3404.40;3403.00;3394.20
77239;PMS7003;66258;53.170;-2.240;2023-05-15T00:15:02;3496.67;3496.67;3494.33
77239;PMS7003;66258;53.170;-2.240;2023-05-15T00:17:30;772.40;769.80;750.20
77239;PMS7003;66258;53.170;-2.240;2023-05-15T00:19:57;3705.75;3705.75;3705.75
77239;PMS7003;66258;53.170;-2.240;2023-05-15T00:22:27;3881.33;3881.33;3881.33
77239;PMS7003;66258;53.170;-2.240;2023-05-15T00:24:56;1613.00;1610.20;1585.80
77239;PMS7003;66258;53.170;-2.240;2023-05-15T00:27:24;3872.33;3872.33;3872.33
77239;PMS7003;66258;53.170;-2.240;2023-05-15T00:29:51;1513.50;1510.75;1494.00
77239;PMS7003;66258;53.170;-2.240;2023-05-15T00:32:19;2954.25;2953.25;2934.75
77239;PMS7003;66258;53.170;-2.240;2023-05-15T00:34:47;3870.40;3870.40;3870.40
77239;PMS7003;66258;53.170;-2.240;2023-05-15T00:37:14;3819.50;3819.25;3818.00
77239;PMS7003;66258;53.170;-2.240;2023-05-15T00:39:41;3498.40;3494.40;3494.40
77239;PMS7003;66258;53.170;-2.240;2023-05-15T00:42:10;3604.80;3604.80;3602.80
77239;PMS7003;66258;53.170;-2.240;2023-05-15T00:44:38;3866.50;3866.50;3866.50
77239;PMS7003;66258;53.170;-2.240;2023-05-15T00:47:06;3423.60;3418.20;3417.40
77239;PMS7003;66258;53.170;-2.240;2023-05-15T00:49:36;3295.00;3293.75;3289.00
77239;PMS7003;66258;53.170;-2.240;2023-05-15T00:52:04;3840.40;3840.40;3838.60
77239;PMS7003;66258;53.170;-2.240;2023-05-15T00:54:32;3637.20;3637.20;3634.00
77239;PMS7003;66258;53.170;-2.240;2023-05-15T00:56:59;3925.60;3925.60;3925.60
77239;PMS7003;66258;53.170;-2.240;2023-05-15T00:59:31;3927.00;3927.00;3927.00
77239;PMS7003;66258;53.170;-2.240;2023-05-15T01:02:00;2701.60;2699.80;2681.00
77239;PMS7003;66258;53.170;-2.240;2023-05-15T01:04:27;3636.25;3635.75;3633.75
77239;PMS7003;66258;53.170;-2.240;2023-05-15T01:06:55;3795.25;3794.75;3793.50
77239;PMS7003;66258;53.170;-2.240;2023-05-15T01:09:23;3524.60;3524.60;3518.60
77239;PMS7003;66258;53.170;-2.240;2023-05-15T01:11:53;3542.25;3539.25;3538.25
77239;PMS7003;66258;53.170;-2.240;2023-05-15T01:14:23;3301.40;3301.20;3300.20
77239;PMS7003;66258;53.170;-2.240;2023-05-15T01:16:52;3329.20;3327.40;3322.80
77239;PMS7003;66258;53.170;-2.240;2023-05-15T01:19:20;2692.80;2689.60;2669.00
77239;PMS7003;66258;53.170;-2.240;2023-05-15T01:27:45;3446.00;3445.00;3437.60
77239;PMS7003;66258;53.170;-2.240;2023-05-15T01:30:17;3269.00;3265.80;3257.00
77239;PMS7003;66258;53.170;-2.240;2023-05-15T01:32:50;3750.75;3750.00;3748.50
77239;PMS7003;66258;53.170;-2.240;2023-05-15T01:35:26;3934.60;3934.60;3934.60
77239;PMS7003;66258;53.170;-2.240;2023-05-15T01:38:07;3279.40;3275.00;3267.80
77239;PMS7003;66258;53.170;-2.240;2023-05-15T01:40:44;3840.20;3840.20;3839.40
77239;PMS7003;66258;53.170;-2.240;2023-05-15T01:43:17;3461.40;3459.40;3456.80
77239;PMS7003;66258;53.170;-2.240;2023-05-15T01:45:47;3367.00;3359.75;3359.75
77239;PMS7003;66258;53.170;-2.240;2023-05-15T01:48:14;3973.00;3973.00;3973.00
77239;PMS7003;66258;53.170;-2.240;2023-05-15T01:50:45;3331.00;3324.80;3322.60
77239;PMS7003;66258;53.170;-2.240;2023-05-15T01:53:17;3652.50;3652.50;3652.50
77239;PMS7003;66258;53.170;-2.240;2023-05-15T01:55:46;2084.00;2080.00;2068.00
77239;PMS7003;66258;53.170;-2.240;2023-05-15T01:58:17;2882.00;2878.00;2873.00
77239;PMS7003;66258;53.170;-2.240;2023-05-15T02:00:45;3555.60;3551.60;3544.60
77239;PMS7003;66258;53.170;-2.240;2023-05-15T02:03:14;3794.40;3794.40;3792.00
77239;PMS7003;66258;53.170;-2.240;2023-05-15T02:05:42;1995.25;1991.25;1985.00
77239;PMS7003;66258;53.170;-2.240;2023-05-15T02:08:11;3541.00;3541.00;3540.00
77239;PMS7003;66258;53.170;-2.240;2023-05-15T02:10:39;2984.75;2980.25;2965.50
77239;PMS7003;66258;53.170;-2.240;2023-05-15T02:13:07;3080.80;3078.60;3067.60
77239;PMS7003;66258;53.170;-2.240;2023-05-15T02:15:37;2109.20;2109.20;2077.40
77239;PMS7003;66258;53.170;-2.240;2023-05-15T02:18:04;3023.60;3023.60;3009.80
77239;PMS7003;66258;53.170;-2.240;2023-05-15T02:20:32;2530.50;2527.00;2498.00
77239;PMS7003;66258;53.170;-2.240;2023-05-15T02:22:59;2874.00;2873.60;2848.40
77239;PMS7003;66258;53.170;-2.240;2023-05-15T02:25:28;164.00;157.00;151.40
77239;PMS7003;66258;53.170;-2.240;2023-05-15T02:28:03;2621.75;2616.25;2604.00
77239;PMS7003;66258;53.170;-2.240;2023-05-15T02:30:42;2429.25;2429.25;2408.50
77239;PMS7003;66258;53.170;-2.240;2023-05-15T02:33:17;1034.50;1034.50;1017.50
77239;PMS7003;66258;53.170;-2.240;2023-05-15T02:35:52;1091.25;1088.00;1028.75
77239;PMS7003;66258;53.170;-2.240;2023-05-15T02:38:26;1246.75;1243.25;1217.50
77239;PMS7003;66258;53.170;-2.240;2023-05-15T02:40:56;2704.60;2704.60;2690.00
77239;PMS7003;66258;53.170;-2.240;2023-05-15T02:43:24;613.40;607.20;591.20
77239;PMS7003;66258;53.170;-2.240;2023-05-15T02:45:54;1610.00;1607.60;1551.40
77239;PMS7003;66258;53.170;-2.240;2023-05-15T02:48:22;2184.20;2179.60;2170.80
77239;PMS7003;66258;53.170;-2.240;2023-05-15T02:50:51;4019.00;4019.00;4019.00
77239;PMS7003;66258;53.170;-2.240;2023-05-15T02:53:19;3119.40;3119.40;3115.40
77239;PMS7003;66258;53.170;-2.240;2023-05-15T02:55:47;20.25;18.00;16.75
77239;PMS7003;66258;53.170;-2.240;2023-05-15T02:58:14;1920.75;1910.50;1895.25
77239;PMS7003;66258;53.170;-2.240;2023-05-15T03:00:42;3452.00;3449.20;3441.80
77239;PMS7003;66258;53.170;-2.240;2023-05-15T03:03:11;1732.25;1725.75;1717.25
77239;PMS7003;66258;53.170;-2.240;2023-05-15T03:05:39;164.20;157.40;127.60
77239;PMS7003;66258;53.170;-2.240;2023-05-15T03:08:06;1961.40;1960.20;1922.20
77239;PMS7003;66258;53.170;-2.240;2023-05-15T03:10:34;959.00;955.60;927.00
77239;PMS7003;66258;53.170;-2.240;2023-05-15T03:13:01;1291.60;1288.20;1237.20
77239;PMS7003;66258;53.170;-2.240;2023-05-15T03:15:29;3613.80;3612.80;3612.00
77239;PMS7003;66258;53.170;-2.240;2023-05-15T03:17:56;2852.60;2851.80;2838.40
77239;PMS7003;66258;53.170;-2.240;2023-05-15T03:20:26;2600.25;2598.00;2583.75
77239;PMS7003;66258;53.170;-2.240;2023-05-15T03:22:53;770.00;770.00;750.80
77239;PMS7003;66258;53.170;-2.240;2023-05-15T03:25:20;55.00;47.75;38.25
77239;PMS7003;66258;53.170;-2.240;2023-05-15T03:27:49;44.75;39.75;31.75
77239;PMS7003;66258;53.170;-2.240;2023-05-15T03:30:16;50.00;44.00;35.25
77239;PMS7003;66258;53.170;-2.240;2023-05-15T03:32:43;37.25;34.25;28.50
77239;PMS7003;66258;53.170;-2.240;2023-05-15T03:35:11;370.80;363.60;352.00
77239;PMS7003;66258;53.170;-2.240;2023-05-15T03:37:40;442.00;440.50;431.25
77239;PMS7003;66258;53.170;-2.240;2023-05-15T03:40:08;1157.20;1153.20;1125.00
77239;PMS7003;66258;53.170;-2.240;2023-05-15T03:42:36;205.75;205.75;204.25
77239;PMS7003;66258;53.170;-2.240;2023-05-15T03:45:04;48.80;43.60;32.40
77239;PMS7003;66258;53.170;-2.240;2023-05-15T03:47:32;961.60;955.20;918.40
77239;PMS7003;66258;53.170;-2.240;2023-05-15T03:50:00;42.67;39.00;26.67
77239;PMS7003;66258;53.170;-2.240;2023-05-15T03:52:27;1399.80;1398.40;1386.00
77239;PMS7003;66258;53.170;-2.240;2023-05-15T03:54:56;42.33;40.00;31.00
77239;PMS7003;66258;53.170;-2.240;2023-05-15T03:57:23;270.75;258.75;242.00
77239;PMS7003;66258;53.170;-2.240;2023-05-15T03:59:51;67.60;55.40;39.20
77239;PMS7003;66258;53.170;-2.240;2023-05-15T04:02:18;2.25;2.25;0.75
77239;PMS7003;66258;53.170;-2.240;2023-05-15T04:04:46;254.75;249.00;234.50
77239;PMS7003;66258;53.170;-2.240;2023-05-15T04:07:13;2508.60;2507.80;2497.20
77239;PMS7003;66258;53.170;-2.240;2023-05-15T04:09:40;1940.75;1925.00;1918.00
77239;PMS7003;66258;53.170;-2.240;2023-05-15T04:12:10;982.00;978.20;942.80
77239;PMS7003;66258;53.170;-2.240;2023-05-15T04:14:38;2538.60;2529.80;2513.60
77239;PMS7003;66258;53.170;-2.240;2023-05-15T04:17:05;52.50;46.00;35.75
77239;PMS7003;66258;53.170;-2.240;2023-05-15T04:19:32;162.00;154.20;128.20
77239;PMS7003;66258;53.170;-2.240;2023-05-15T04:21:59;18.50;18.50;16.00
77239;PMS7003;66258;53.170;-2.240;2023-05-15T04:24:26;75.00;62.00;54.00
77239;PMS7003;66258;53.170;-2.240;2023-05-15T04:26:54;26.25;23.00;20.25
77239;PMS7003;66258;53.170;-2.240;2023-05-15T04:29:23;3366.20;3362.60;3360.60
77239;PMS7003;66258;53.170;-2.240;2023-05-15T04:31:50;49.33;44.00;33.33
77239;PMS7003;66258;53.170;-2.240;2023-05-15T04:34:18;72.60;60.80;46.80
77239;PMS7003;66258;53.170;-2.240;2023-05-15T04:36:45;842.20;838.00;815.40
77239;PMS7003;66258;53.170;-2.240;2023-05-15T04:39:13;661.00;656.50;635.25
77239;PMS7003;66258;53.170;-2.240;2023-05-15T04:41:41;2136.20;2136.20;2134.80
77239;PMS7003;66258;53.170;-2.240;2023-05-15T04:44:08;2092.25;2088.50;2059.00
77239;PMS7003;66258;53.170;-2.240;2023-05-15T04:46:36;243.00;240.50;232.50
77239;PMS7003;66258;53.170;-2.240;2023-05-15T04:49:04;1539.75;1539.75;1529.25
77239;PMS7003;66258;53.170;-2.240;2023-05-15T04:51:32;24.25;23.25;20.25
77239;PMS7003;66258;53.170;-2.240;2023-05-15T04:53:59;1665.00;1662.40;1636.20
77239;PMS7003;66258;53.170;-2.240;2023-05-15T04:56:26;1648.50;1645.50;1625.50
77239;PMS7003;66258;53.170;-2.240;2023-05-15T04:58:54;3535.00;3535.00;3531.60
77239;PMS7003;66258;53.170;-2.240;2023-05-15T05:01:21;217.00;214.50;206.50
77239;PMS7003;66258;53.170;-2.240;2023-05-15T05:03:50;457.00;453.20;434.20
77239;PMS7003;66258;53.170;-2.240;2023-05-15T05:06:17;73.00;61.80;48.40
77239;PMS7003;66258;53.170;-2.240;2023-05-15T05:08:44;2598.80;2597.60;2585.60
77239;PMS7003;66258;53.170;-2.240;2023-05-15T05:11:12;871.80;870.40;838.40
77239;PMS7003;66258;53.170;-2.240;2023-05-15T05:13:39;62.25;52.50;44.25
77239;PMS7003;66258;53.170;-2.240;2023-05-15T05:16:06;871.00;870.00;861.20
77239;PMS7003;66258;53.170;-2.240;2023-05-15T05:18:34;946.80;942.60;921.60
77239;PMS7003;66258;53.170;-2.240;2023-05-15T05:21:03;174.00;164.50;161.00
77239;PMS7003;66258;53.170;-2.240;2023-05-15T05:23:30;1233.60;1231.40;1223.60
77239;PMS7003;66258;53.170;-2.240;2023-05-15T05:25:57;227.40;219.20;205.60
77239;PMS7003;66258;53.170;-2.240;2023-05-15T05:28:26;43.00;38.67;32.33
77239;PMS7003;66258;53.170;-2.240;2023-05-15T05:30:53;17.50;16.75;15.50
77239;PMS7003;66258;53.170;-2.240;2023-05-15T05:33:20;1887.25;1887.25;1882.25
77239;PMS7003;66258;53.170;-2.240;2023-05-15T05:35:47;62.25;52.25;42.25
77239;PMS7003;66258;53.170;-2.240;2023-05-15T05:38:16;1258.40;1255.40;1235.60
77239;PMS7003;66258;53.170;-2.240;2023-05-15T05:40:44;1007.50;1005.00;1001.75
77239;PMS7003;66258;53.170;-2.240;2023-05-15T05:43:11;1749.60;1749.20;1736.20
77239;PMS7003;66258;53.170;-2.240;2023-05-15T05:45:38;65.00;53.75;39.50
77239;PMS7003;66258;53.170;-2.240;2023-05-15T05:48:06;1277.40;1272.20;1258.80
77239;PMS7003;66258;53.170;-2.240;2023-05-15T05:50:33;2358.40;2348.80;2336.60
77239;PMS7003;66258;53.170;-2.240;2023-05-15T05:53:00;3167.00;3165.60;3163.20
77239;PMS7003;66258;53.170;-2.240;2023-05-15T05:55:30;2257.80;2256.20;2246.00
77239;PMS7003;66258;53.170;-2.240;2023-05-15T05:57:57;2904.75;2903.50;2897.50
77239;PMS7003;66258;53.170;-2.240;2023-05-15T06:00:24;1194.20;1187.40;1170.40
77239;PMS7003;66258;53.170;-2.240;2023-05-15T06:02:53;2416.00;2411.25;2399.75
77239;PMS7003;66258;53.170;-2.240;2023-05-15T06:05:23;2188.60;2184.40;2160.60
77239;PMS7003;66258;53.170;-2.240;2023-05-15T06:07:50;387.80;385.40;344.00
77239;PMS7003;66258;53.170;-2.240;2023-05-15T06:10:18;3812.25;3812.25;3812.25
77239;PMS7003;66258;53.170;-2.240;2023-05-15T06:12:47;2897.00;2889.25;2884.25
77239;PMS7003;66258;53.170;-2.240;2023-05-15T06:15:14;3015.60;3013.20;3008.60
77239;PMS7003;66258;53.170;-2.240;2023-05-15T06:17:42;1803.80;1801.40;1789.20
77239;PMS7003;66258;53.170;-2.240;2023-05-15T06:20:10;2801.80;2785.60;2778.20
77239;PMS7003;66258;53.170;-2.240;2023-05-15T06:22:38;1768.75;1764.75;1743.50
77239;PMS7003;66258;53.170;-2.240;2023-05-15T06:25:07;1799.60;1792.60;1771.20
77239;PMS7003;66258;53.170;-2.240;2023-05-15T06:27:34;3434.00;3434.00;3433.00
77239;PMS7003;66258;53.170;-2.240;2023-05-15T06:30:04;3196.20;3195.00;3193.60
77239;PMS7003;66258;53.170;-2.240;2023-05-15T06:32:32;3485.50;3483.00;3478.50
77239;PMS7003;66258;53.170;-2.240;2023-05-15T06:35:00;2896.50;2891.50;2881.50
77239;PMS7003;66258;53.170;-2.240;2023-05-15T06:37:28;3778.00;3778.00;3776.40
77239;PMS7003;66258;53.170;-2.240;2023-05-15T06:39:56;3818.25;3818.25;3818.25
77239;PMS7003;66258;53.170;-2.240;2023-05-15T06:42:23;3856.00;3856.00;3856.00
77239;PMS7003;66258;53.170;-2.240;2023-05-15T06:44:51;3845.40;3845.40;3845.40
77239;PMS7003;66258;53.170;-2.240;2023-05-15T06:47:20;3068.00;3064.50;3064.50
77239;PMS7003;66258;53.170;-2.240;2023-05-15T06:49:47;3488.60;3488.60;3488.60
77239;PMS7003;66258;53.170;-2.240;2023-05-15T06:52:14;3826.20;3826.20;3826.20
77239;PMS7003;66258;53.170;-2.240;2023-05-15T06:54:42;3816.50;3816.50;3816.50
77239;PMS7003;66258;53.170;-2.240;2023-05-15T06:57:09;3857.67;3857.67;3857.67
77239;PMS7003;66258;53.170;-2.240;2023-05-15T06:59:36;3847.00;3847.00;3847.00
77239;PMS7003;66258;53.170;-2.240;2023-05-15T07:02:04;2323.80;2317.80;2302.80
77239;PMS7003;66258;53.170;-2.240;2023-05-15T07:04:34;3422.75;3421.75;3418.00
77239;PMS7003;66258;53.170;-2.240;2023-05-15T07:07:02;2593.00;2583.00;2581.33
77239;PMS7003;66258;53.170;-2.240;2023-05-15T07:09:29;3851.25;3851.25;3851.25
77239;PMS7003;66258;53.170;-2.240;2023-05-15T07:11:57;3837.75;3837.75;3837.75
77239;PMS7003;66258;53.170;-2.240;2023-05-15T07:14:24;3597.40;3596.20;3593.20
77239;PMS7003;66258;53.170;-2.240;2023-05-15T07:16:51;2909.40;2901.00;2887.00
77239;PMS7003;66258;53.170;-2.240;2023-05-15T07:19:18;3737.00;3737.00;3737.00
77239;PMS7003;66258;53.170;-2.240;2023-05-15T07:21:47;3733.20;3733.20;3733.20
77239;PMS7003;66258;53.170;-2.240;2023-05-15T07:24:15;3703.25;3703.25;3703.25
77239;PMS7003;66258;53.170;-2.240;2023-05-15T07:26:42;3659.60;3659.60;3659.60
77239;PMS7003;66258;53.170;-2.240;2023-05-15T07:29:23;3665.00;3665.00;3665.00
77239;PMS7003;66258;53.170;-2.240;2023-05-15T07:31:50;3693.80;3693.80;3693.80
77239;PMS7003;66258;53.170;-2.240;2023-05-15T07:34:18;3405.50;3397.25;3392.75
77239;PMS7003;66258;53.170;-2.240;2023-05-15T07:36:46;3674.60;3674.60;3674.60
77239;PMS7003;66258;53.170;-2.240;2023-05-15T07:39:13;3661.80;3661.80;3661.80
77239;PMS7003;66258;53.170;-2.240;2023-05-15T07:41:41;3681.00;3681.00;3681.00
77239;PMS7003;66258;53.170;-2.240;2023-05-15T07:44:09;3684.60;3684.60;3684.60
77239;PMS7003;66258;53.170;-2.240;2023-05-15T07:46:36;3673.50;3673.50;3673.50
77239;PMS7003;66258;53.170;-2.240;2023-05-15T07:49:04;3614.00;3614.00;3614.00
77239;PMS7003;66258;53.170;-2.240;2023-05-15T07:51:31;3575.80;3575.80;3575.80
77239;PMS7003;66258;53.170;-2.240;2023-05-15T07:54:00;3270.80;3269.80;3264.80
77239;PMS7003;66258;53.170;-2.240;2023-05-15T07:56:28;3555.50;3555.50;3555.50
77239;PMS7003;66258;53.170;-2.240;2023-05-15T07:58:55;3218.80;3216.60;3210.80
77239;PMS7003;66258;53.170;-2.240;2023-05-15T08:01:22;3553.20;3553.20;3553.20
77239;PMS7003;66258;53.170;-2.240;2023-05-15T08:03:49;3557.00;3557.00;3557.00
77239;PMS7003;66258;53.170;-2.240;2023-05-15T08:06:17;3546.25;3546.25;3546.25
77239;PMS7003;66258;53.170;-2.240;2023-05-15T08:08:45;3461.00;3460.60;3459.60
77239;PMS7003;66258;53.170;-2.240;2023-05-15T08:11:14;3354.80;3353.60;3350.00
77239;PMS7003;66258;53.170;-2.240;2023-05-15T08:13:42;3563.00;3563.00;3563.00
77239;PMS7003;66258;53.170;-2.240;2023-05-15T08:16:09;3598.20;3598.20;3598.20
77239;PMS7003;66258;53.170;-2.240;2023-05-15T08:18:36;3618.00;3618.00;3618.00
77239;PMS7003;66258;53.170;-2.240;2023-05-15T08:21:03;2580.80;2571.20;2557.20
77239;PMS7003;66258;53.170;-2.240;2023-05-15T08:23:30;3706.60;3706.60;3706.60
77239;PMS7003;66258;53.170;-2.240;2023-05-15T08:25:57;3715.25;3715.25;3715.25
77239;PMS7003;66258;53.170;-2.240;2023-05-15T08:28:26;3402.00;3400.20;3393.40
77239;PMS7003;66258;53.170;-2.240;2023-05-15T08:30:54;3687.40;3687.40;3687.40
77239;PMS7003;66258;53.170;-2.240;2023-05-15T08:33:21;3655.00;3655.00;3655.00
77239;PMS7003;66258;53.170;-2.240;2023-05-15T08:35:48;3118.40;3115.40;3109.20
77239;PMS7003;66258;53.170;-2.240;2023-05-15T08:38:16;3264.20;3264.20;3262.20
77239;PMS7003;66258;53.170;-2.240;2023-05-15T08:40:45;3549.00;3549.00;3549.00
77239;PMS7003;66258;53.170;-2.240;2023-05-15T08:43:16;3149.40;3149.40;3146.20
77239;PMS7003;66258;53.170;-2.240;2023-05-15T08:45:45;3283.75;3278.50;3275.50
77239;PMS7003;66258;53.170;-2.240;2023-05-15T08:48:13;3018.00;3014.00;3006.50
77239;PMS7003;66258;53.170;-2.240;2023-05-15T08:50:43;3113.00;3110.20;3104.00
77239;PMS7003;66258;53.170;-2.240;2023-05-15T08:53:10;3652.20;3652.20;3652.20
77239;PMS7003;66258;53.170;-2.240;2023-05-15T08:55:38;3572.25;3571.75;3569.75
77239;PMS7003;66258;53.170;-2.240;2023-05-15T08:58:06;3677.00;3677.00;3677.00
77239;PMS7003;66258;53.170;-2.240;2023-05-15T09:00:34;3320.40;3318.00;3311.60
77239;PMS7003;66258;53.170;-2.240;2023-05-15T09:03:04;3653.50;3653.50;3653.50
77239;PMS7003;66258;53.170;-2.240;2023-05-15T09:05:31;3677.80;3677.80;3677.80
77239;PMS7003;66258;53.170;-2.240;2023-05-15T09:08:00;3718.00;3718.00;3718.00
77239;PMS7003;66258;53.170;-2.240;2023-05-15T09:10:32;3207.40;3206.60;3197.40
77239;PMS7003;66258;53.170;-2.240;2023-05-15T09:13:00;3603.50;3603.25;3602.50
77239;PMS7003;66258;53.170;-2.240;2023-05-15T09:15:28;3431.80;3431.40;3426.40
77239;PMS7003;66258;53.170;-2.240;2023-05-15T09:17:56;3300.00;3292.50;3285.75
77239;PMS7003;66258;53.170;-2.240;2023-05-15T09:20:27;3669.20;3669.20;3669.20
77239;PMS7003;66258;53.170;-2.240;2023-05-15T09:22:55;3435.00;3435.00;3432.50
77239;PMS7003;66258;53.170;-2.240;2023-05-15T09:25:32;3607.60;3607.60;3607.60
77239;PMS7003;66258;53.170;-2.240;2023-05-15T09:28:01;3272.80;3272.80;3267.20
77239;PMS7003;66258;53.170;-2.240;2023-05-15T09:30:30;3533.00;3533.00;3533.00
77239;PMS7003;66258;53.170;-2.240;2023-05-15T09:32:58;3533.00;3533.00;3533.00
77239;PMS7003;66258;53.170;-2.240;2023-05-15T09:35:29;3355.80;3355.80;3355.80
77239;PMS7003;66258;53.170;-2.240;2023-05-15T09:37:57;2186.00;2176.00;2168.40
77239;PMS7003;66258;53.170;-2.240;2023-05-15T09:40:27;2692.20;2679.60;2653.00
77239;PMS7003;66258;53.170;-2.240;2023-05-15T09:42:55;2723.40;2719.40;2707.00
77239;PMS7003;66258;53.170;-2.240;2023-05-15T09:45:22;3379.00;3377.50;3373.25
77239;PMS7003;66258;53.170;-2.240;2023-05-15T09:47:50;3472.60;3472.60;3470.80
77239;PMS7003;66258;53.170;-2.240;2023-05-15T09:50:22;3713.50;3713.50;3713.50
77239;PMS7003;66258;53.170;-2.240;2023-05-15T09:52:53;3087.25;3078.00;3064.25
77239;PMS7003;66258;53.170;-2.240;2023-05-15T09:55:24;3450.50;3447.50;3443.00
77239;PMS7003;66258;53.170;-2.240;2023-05-15T09:58:05;3743.00;3743.00;3743.00
77239;PMS7003;66258;53.170;-2.240;2023-05-15T10:00:34;3554.75;3552.25;3548.25
77239;PMS7003;66258;53.170;-2.240;2023-05-15T10:03:14;3655.00;3655.00;3655.00
77239;PMS7003;66258;53.170;-2.240;2023-05-15T10:05:43;3599.40;3599.40;3599.40
77239;PMS7003;66258;53.170;-2.240;2023-05-15T10:08:12;3637.00;3637.00;3637.00
77239;PMS7003;66258;53.170;-2.240;2023-05-15T10:10:40;2748.20;2743.60;2736.80
77239;PMS7003;66258;53.170;-2.240;2023-05-15T10:13:07;3292.80;3290.00;3287.80
77239;PMS7003;66258;53.170;-2.240;2023-05-15T10:15:36;3255.00;3251.80;3240.20
77239;PMS7003;66258;53.170;-2.240;2023-05-15T10:18:06;3425.00;3424.50;3421.00
77239;PMS7003;66258;53.170;-2.240;2023-05-15T10:20:34;3250.00;3247.00;3238.50
77239;PMS7003;66258;53.170;-2.240;2023-05-15T10:23:03;2804.50;2797.50;2783.75
77239;PMS7003;66258;53.170;-2.240;2023-05-15T10:25:35;2897.00;2890.50;2885.25
77239;PMS7003;66258;53.170;-2.240;2023-05-15T10:28:08;3304.50;3300.50;3296.25
77239;PMS7003;66258;53.170;-2.240;2023-05-15T10:30:37;3427.00;3423.40;3419.80
77239;PMS7003;66258;53.170;-2.240;2023-05-15T10:33:05;3577.00;3577.00;3577.00
77239;PMS7003;66258;53.170;-2.240;2023-05-15T10:35:33;3394.00;3393.50;3392.00
77239;PMS7003;66258;53.170;-2.240;2023-05-15T10:38:01;2574.40;2571.00;2564.40
77239;PMS7003;66258;53.170;-2.240;2023-05-15T10:40:30;3147.40;3145.00;3139.60
77239;PMS7003;66258;53.170;-2.240;2023-05-15T10:43:00;2509.00;2505.20;2490.60
77239;PMS7003;66258;53.170;-2.240;2023-05-15T10:45:29;2319.60;2309.20;2286.00
77239;PMS7003;66258;53.170;-2.240;2023-05-15T10:47:58;2785.25;2784.50;2776.25
77239;PMS7003;66258;53.170;-2.240;2023-05-15T10:50:27;2175.00;2162.00;2144.50
77239;PMS7003;66258;53.170;-2.240;2023-05-15T10:52:55;411.50;406.50;367.75
77239;PMS7003;66258;53.170;-2.240;2023-05-15T10:55:22;2032.80;2016.40;2003.00
77239;PMS7003;66258;53.170;-2.240;2023-05-15T10:57:50;3545.00;3545.00;3545.00
77239;PMS7003;66258;53.170;-2.240;2023-05-15T11:00:24;2604.00;2593.25;2585.00
77239;PMS7003;66258;53.170;-2.240;2023-05-15T11:02:53;1780.00;1768.00;1736.80
77239;PMS7003;66258;53.170;-2.240;2023-05-15T11:05:21;3388.80;3387.80;3386.80
77239;PMS7003;66258;53.170;-2.240;2023-05-15T11:10:52;3327.75;3324.25;3319.75
77239;PMS7003;66258;53.170;-2.240;2023-05-15T11:13:19;2458.60;2452.60;2439.20
77239;PMS7003;66258;53.170;-2.240;2023-05-15T11:15:47;2165.80;2154.40;2146.60
77239;PMS7003;66258;53.170;-2.240;2023-05-15T11:18:14;2571.75;2560.50;2552.25
77239;PMS7003;66258;53.170;-2.240;2023-05-15T11:20:56;2880.50;2875.50;2864.75
77239;PMS7003;66258;53.170;-2.240;2023-05-15T11:23:38;2912.50;2909.25;2874.75
77239;PMS7003;66258;53.170;-2.240;2023-05-15T11:26:06;3555.60;3555.60;3555.60
77239;PMS7003;66258;53.170;-2.240;2023-05-15T11:28:39;1655.25;1641.50;1617.25
77239;PMS7003;66258;53.170;-2.240;2023-05-15T11:31:09;2145.40;2139.40;2129.60
77239;PMS7003;66258;53.170;-2.240;2023-05-15T11:33:37;1873.00;1859.20;1838.80
77239;PMS7003;66258;53.170;-2.240;2023-05-15T11:36:04;1946.00;1933.80;1921.80
77239;PMS7003;66258;53.170;-2.240;2023-05-15T11:38:35;2642.80;2631.40;2620.40
77239;PMS7003;66258;53.170;-2.240;2023-05-15T11:41:15;1507.80;1497.40;1480.00
77239;PMS7003;66258;53.170;-2.240;2023-05-15T11:43:44;1952.60;1946.60;1915.40
77239;PMS7003;66258;53.170;-2.240;2023-05-15T11:46:12;2786.00;2784.60;2775.80
77239;PMS7003;66258;53.170;-2.240;2023-05-15T11:48:41;2172.50;2167.50;2161.50
77239;PMS7003;66258;53.170;-2.240;2023-05-15T11:51:14;3583.50;3583.50;3583.50
77239;PMS7003;66258;53.170;-2.240;2023-05-15T11:53:43;3533.00;3533.00;3533.00
77239;PMS7003;66258;53.170;-2.240;2023-05-15T11:56:12;1888.50;1879.75;1868.75
77239;PMS7003;66258;53.170;-2.240;2023-05-15T11:58:42;2198.60;2189.80;2181.40
77239;PMS7003;66258;53.170;-2.240;2023-05-15T12:02:56;1915.60;1911.60;1898.40
77239;PMS7003;66258;53.170;-2.240;2023-05-15T12:05:23;3399.50;3399.50;3396.50
77239;PMS7003;66258;53.170;-2.240;2023-05-15T12:07:50;3205.40;3203.40;3196.40
77239;PMS7003;66258;53.170;-2.240;2023-05-15T12:10:17;2171.50;2156.00;2141.00
77239;PMS7003;66258;53.170;-2.240;2023-05-15T12:12:45;724.60;705.80;662.20
77239;PMS7003;66258;53.170;-2.240;2023-05-15T12:15:12;2524.60;2515.60;2505.40
77239;PMS7003;66258;53.170;-2.240;2023-05-15T12:17:43;3581.50;3581.50;3581.50
77239;PMS7003;66258;53.170;-2.240;2023-05-15T12:20:14;2215.40;2202.40;2191.40
77239;PMS7003;66258;53.170;-2.240;2023-05-15T12:22:43;2409.75;2403.50;2397.25
77239;PMS7003;66258;53.170;-2.240;2023-05-15T12:25:11;2516.00;2508.80;2481.80
77239;PMS7003;66258;53.170;-2.240;2023-05-15T12:27:40;3343.40;3342.40;3337.80
77239;PMS7003;66258;53.170;-2.240;2023-05-15T12:30:08;2636.80;2626.80;2619.60
77239;PMS7003;66258;53.170;-2.240;2023-05-15T12:32:36;1960.50;1952.25;1930.75
77239;PMS7003;66258;53.170;-2.240;2023-05-15T12:35:06;1311.40;1304.60;1276.20
77239;PMS7003;66258;53.170;-2.240;2023-05-15T12:37:36;2307.20;2301.40;2292.20
77239;PMS7003;66258;53.170;-2.240;2023-05-15T12:40:05;2311.75;2310.75;2287.25
77239;PMS7003;66258;53.170;-2.240;2023-05-15T12:42:36;2424.00;2414.00;2403.00
77239;PMS7003;66258;53.170;-2.240;2023-05-15T12:45:10;1805.60;1782.60;1763.80
77239;PMS7003;66258;53.170;-2.240;2023-05-15T12:47:39;1800.60;1774.80;1762.20
77239;PMS7003;66258;53.170;-2.240;2023-05-15T12:50:16;703.75;691.00;657.25
77239;PMS7003;66258;53.170;-2.240;2023-05-15T12:52:48;3293.60;3290.00;3285.60
77239;PMS7003;66258;53.170;-2.240;2023-05-15T12:55:17;1898.25;1877.50;1866.75